Time;durP1;ratioP1;P1;durP2;ratioP2;P2;SDS_P1;SDS_P2;PMS_P1;PMS_P2;Temp;Humidity;BMP_temperature;BMP_pressure;BME280_temperature;BME280_humidity;BME280_pressure;Samples;Min_cycle;Max_cycle;Signal;HPM_P1;HPM_P2
2022/10/10 00:01:02;;;;;;;5.23;4.83;;;15.00;1.00;;;;;;5037526;28;21018;-83
2022/10/10 00:03:30;;;;;;;5.60;4.80;;;14.90;1.00;;;;;;5038591;28;20543;-83
2022/10/10 00:06:00;;;;;;;5.40;4.80;;;14.90;1.00;;;;;;5046725;28;20470;-83
2022/10/10 00:08:28;;;;;;;5.90;4.23;;;15.00;1.00;;;;;;5038314;28;20478;-83
2022/10/10 00:10:56;;;;;;;10.57;4.87;;;14.90;1.00;;;;;;5041413;28;20475;-83
2022/10/10 00:13:24;;;;;;;4.93;4.63;;;14.90;1.00;;;;;;5044533;28;20450;-82
2022/10/10 00:15:52;;;;;;;5.63;4.40;;;14.90;1.00;;;;;;5036285;28;20484;-82
2022/10/10 00:18:20;;;;;;;5.57;5.17;;;15.00;1.00;;;;;;5047238;28;20559;-82
2022/10/10 00:20:50;;;;;;;6.00;5.50;;;15.00;1.00;;;;;;5044011;28;20453;-82
2022/10/10 00:23:20;;;;;;;4.60;4.20;;;14.90;1.00;;;;;;5040166;28;20544;-83
2022/10/10 00:25:49;;;;;;;4.97;4.57;;;15.00;1.00;;;;;;5039943;28;20468;-83
2022/10/10 00:28:17;;;;;;;6.00;4.40;;;15.00;1.00;;;;;;5036036;28;20480;-83
2022/10/10 00:30:45;;;;;;;5.90;5.40;;;14.90;1.00;;;;;;5047004;28;20460;-81
2022/10/10 00:33:14;;;;;;;6.83;5.10;;;15.00;1.00;;;;;;5045040;28;20486;-81
2022/10/10 00:35:42;;;;;;;5.10;4.70;;;15.00;1.00;;;;;;5041218;28;20445;-82
2022/10/10 00:38:10;;;;;;;5.30;4.90;;;15.00;1.00;;;;;;5036609;28;20964;-82
2022/10/10 00:40:47;;;;;;;4.93;4.53;;;14.90;1.00;;;;;;5045426;28;20542;-81
2022/10/10 00:43:17;;;;;;;6.13;4.70;;;14.90;1.00;;;;;;5050224;28;20487;-81
2022/10/10 00:45:47;;;;;;;5.10;4.70;;;14.90;1.00;;;;;;5047022;28;20480;-81
2022/10/10 00:48:18;;;;;;;4.87;4.53;;;15.00;1.00;;;;;;5047575;28;20552;-81
2022/10/10 00:50:50;;;;;;;4.50;4.20;;;14.80;1.00;;;;;;5037070;28;20593;-83
2022/10/10 00:53:23;;;;;;;5.33;4.63;;;14.80;1.00;;;;;;5039971;28;20541;-82
2022/10/10 00:55:53;;;;;;;6.10;4.50;;;15.00;1.00;;;;;;5042729;28;20535;-82
2022/10/10 00:58:22;;;;;;;5.37;4.97;;;14.90;1.00;;;;;;5040671;28;20566;-82
2022/10/10 01:00:50;;;;;;;4.97;4.60;;;14.80;1.00;;;;;;5040539;28;20456;-83
2022/10/10 01:03:19;;;;;;;5.87;5.37;;;14.80;1.00;;;;;;5047371;28;21258;-82
2022/10/10 01:05:48;;;;;;;5.87;5.33;;;14.70;8.10;;;;;;5040870;28;20478;-83
2022/10/10 01:08:17;;;;;;;5.23;4.90;;;14.70;20.90;;;;;;5040898;28;20479;-82
2022/10/10 01:10:58;;;;;;;5.07;4.30;;;14.50;99.90;;;;;;5042217;28;20487;-83
2022/10/10 01:13:30;;;;;;;5.00;4.70;;;14.70;87.00;;;;;;5043306;28;20448;-82
2022/10/10 01:16:06;;;;;;;5.13;4.67;;;14.60;84.10;;;;;;5040786;28;20466;-82
2022/10/10 01:18:42;;;;;;;5.33;4.83;;;14.80;28.60;;;;;;5043487;28;20527;-82
2022/10/10 01:21:18;;;;;;;5.20;4.80;;;14.90;1.00;;;;;;5044048;28;20538;-82
2022/10/10 01:24:23;;;;;;;4.93;4.53;;;14.80;10.80;;;;;;5049754;28;20439;-82
2022/10/10 01:27:21;;;;;;;4.50;4.20;;;14.70;50.90;;;;;;5045501;28;20531;-82
2022/10/10 01:29:58;;;;;;;4.87;4.50;;;14.60;87.20;;;;;;5038629;28;20591;-82
2022/10/10 01:32:33;;;;;;;6.80;4.70;;;14.70;91.70;;;;;;5052930;28;20447;-83
2022/10/10 01:35:14;;;;;;;5.97;5.47;;;14.60;99.90;;;;;;5050573;28;20472;-82
2022/10/10 01:37:51;;;;;;;6.07;5.03;;;14.60;99.90;;;;;;5048129;28;20458;-82
2022/10/10 01:40:26;;;;;;;5.03;4.50;;;14.50;99.90;;;;;;5040647;28;21224;-81
2022/10/10 01:42:58;;;;;;;5.20;4.80;;;14.50;99.90;;;;;;5046494;28;20489;-82
2022/10/10 01:45:30;;;;;;;4.77;4.47;;;14.60;99.90;;;;;;5042344;28;20571;-82
2022/10/10 01:48:01;;;;;;;5.17;4.77;;;14.60;99.90;;;;;;5036759;28;20912;-82
2022/10/10 01:50:33;;;;;;;6.27;4.73;;;14.60;99.90;;;;;;5045397;28;20487;-82
2022/10/10 01:53:10;;;;;;;4.50;4.10;;;14.70;99.90;;;;;;5044808;28;21004;-82
2022/10/10 01:55:53;;;;;;;7.60;5.20;;;14.60;99.90;;;;;;5041803;28;20502;-83
2022/10/10 01:58:41;;;;;;;5.43;4.93;;;14.70;99.90;;;;;;5045832;28;21198;-82
2022/10/10 02:01:17;;;;;;;5.80;4.50;;;14.70;99.90;;;;;;5044721;28;20555;-82
2022/10/10 02:03:50;;;;;;;4.90;4.50;;;14.60;99.90;;;;;;5032438;28;20459;-82
2022/10/10 02:06:24;;;;;;;5.83;4.70;;;14.50;99.90;;;;;;5043953;28;20483;-81
2022/10/10 02:08:56;;;;;;;5.10;4.70;;;14.60;99.90;;;;;;5043830;28;20579;-82
2022/10/10 02:11:27;;;;;;;5.63;5.10;;;14.60;99.90;;;;;;5048542;28;21322;-82
2022/10/10 02:14:00;;;;;;;5.20;4.90;;;14.60;99.90;;;;;;5045480;28;20455;-81
2022/10/10 02:16:34;;;;;;;5.80;5.07;;;14.60;99.90;;;;;;5038496;28;20595;-82
2022/10/10 02:19:06;;;;;;;6.60;5.40;;;14.50;99.90;;;;;;5034804;28;20514;-83
2022/10/10 02:21:34;;;;;;;5.40;4.90;;;14.50;99.90;;;;;;5038318;28;20466;-82
2022/10/10 02:24:06;;;;;;;5.00;4.60;;;14.60;99.90;;;;;;5049909;28;20451;-82
2022/10/10 02:26:35;;;;;;;6.00;5.40;;;14.60;99.90;;;;;;5045329;28;20582;-82
2022/10/10 02:29:09;;;;;;;5.20;4.80;;;14.50;99.90;;;;;;5046505;28;20472;-83
2022/10/10 02:31:44;;;;;;;5.23;4.70;;;14.50;99.90;;;;;;5046202;28;20460;-81
2022/10/10 02:34:16;;;;;;;5.43;4.77;;;14.50;99.90;;;;;;5051786;28;20443;-82
2022/10/10 02:36:48;;;;;;;5.00;4.60;;;14.50;99.90;;;;;;5049201;28;20481;-83
2022/10/10 02:39:19;;;;;;;4.93;4.53;;;14.40;99.90;;;;;;5043169;28;20466;-84
2022/10/10 02:41:49;;;;;;;9.33;5.73;;;14.40;99.90;;;;;;5045118;28;20447;-82
2022/10/10 02:44:17;;;;;;;7.90;5.43;;;14.30;99.90;;;;;;5049005;28;20474;-83
2022/10/10 02:46:47;;;;;;;4.37;4.07;;;14.20;99.90;;;;;;5045955;28;20480;-82
2022/10/10 02:49:22;;;;;;;5.73;5.17;;;14.20;99.90;;;;;;5052090;28;20511;-84
2022/10/10 02:51:50;;;;;;;5.17;4.77;;;14.30;99.90;;;;;;5048821;28;20486;-83
2022/10/10 02:54:18;;;;;;;4.83;4.43;;;14.30;99.90;;;;;;5046401;28;20566;-83
2022/10/10 02:56:46;;;;;;;5.20;4.90;;;14.30;99.90;;;;;;5043059;28;20460;-83
2022/10/10 02:59:14;;;;;;;4.93;4.40;;;14.40;99.90;;;;;;5045474;28;20479;-82
2022/10/10 03:01:42;;;;;;;6.03;4.70;;;14.30;99.90;;;;;;5051500;28;20520;-82
2022/10/10 03:04:12;;;;;;;4.80;4.50;;;14.30;99.90;;;;;;5037060;28;20464;-83
2022/10/10 03:06:40;;;;;;;4.93;4.47;;;14.30;99.90;;;;;;5041444;28;20480;-83
2022/10/10 03:09:08;;;;;;;5.90;5.50;;;14.30;99.90;;;;;;5049269;28;20483;-82
2022/10/10 03:11:36;;;;;;;5.33;4.80;;;14.30;99.90;;;;;;5045565;28;20466;-83
2022/10/10 03:14:04;;;;;;;6.50;6.00;;;14.30;99.90;;;;;;5045959;28;20488;-83
2022/10/10 03:16:33;;;;;;;6.07;4.47;;;14.30;99.90;;;;;;5045703;28;20473;-82
2022/10/10 03:19:01;;;;;;;5.97;5.40;;;14.40;99.90;;;;;;5047119;28;20511;-82
2022/10/10 03:21:31;;;;;;;5.20;4.90;;;14.40;99.90;;;;;;5047163;28;20563;-82
2022/10/10 03:23:59;;;;;;;7.67;4.77;;;14.40;99.90;;;;;;5045164;28;20438;-82
2022/10/10 03:26:27;;;;;;;5.20;4.70;;;14.30;99.90;;;;;;5039332;28;20472;-82
2022/10/10 03:28:55;;;;;;;7.13;4.73;;;14.40;99.90;;;;;;5051985;28;20514;-82
2022/10/10 03:31:23;;;;;;;5.10;4.60;;;14.40;99.90;;;;;;5047079;28;20547;-84
2022/10/10 03:33:51;;;;;;;5.10;4.40;;;14.50;99.90;;;;;;5045691;28;20498;-83
2022/10/10 03:36:21;;;;;;;6.43;4.90;;;14.50;99.90;;;;;;5041317;28;20858;-84
2022/10/10 03:38:50;;;;;;;4.80;4.50;;;14.50;99.90;;;;;;5046079;28;20577;-82
2022/10/10 03:41:18;;;;;;;5.37;4.83;;;14.50;99.90;;;;;;5050916;28;20451;-82
2022/10/10 03:43:46;;;;;;;5.97;4.70;;;14.30;99.90;;;;;;5043556;28;20484;-83
2022/10/10 03:46:14;;;;;;;9.80;4.57;;;14.40;99.90;;;;;;5047503;28;20879;-83
2022/10/10 03:48:43;;;;;;;4.67;4.23;;;14.50;99.90;;;;;;5044000;28;20506;-83
2022/10/10 03:51:12;;;;;;;6.90;4.63;;;14.60;99.90;;;;;;5042463;28;20499;-82
2022/10/10 03:53:40;;;;;;;5.00;4.33;;;14.70;99.90;;;;;;5042566;28;20506;-83
2022/10/10 03:56:09;;;;;;;5.07;4.30;;;14.70;99.90;;;;;;5038996;28;20533;-82
2022/10/10 03:58:37;;;;;;;5.97;5.43;;;14.60;99.90;;;;;;5042438;28;20477;-82
2022/10/10 04:01:05;;;;;;;6.30;3.87;;;14.60;99.90;;;;;;5042091;28;20540;-84
2022/10/10 04:03:34;;;;;;;4.50;4.10;;;14.60;99.90;;;;;;5044746;28;20542;-82
2022/10/10 04:06:02;;;;;;;5.83;4.87;;;14.50;99.90;;;;;;5041220;28;20969;-84
2022/10/10 04:08:30;;;;;;;4.60;4.10;;;14.40;99.90;;;;;;5039294;28;20475;-83
2022/10/10 04:10:58;;;;;;;5.33;4.83;;;14.30;1.00;;;;;;5048471;28;20457;-83
2022/10/10 04:13:28;;;;;;;4.70;4.30;;;14.30;1.00;;;;;;5038840;28;20463;-82
2022/10/10 04:15:56;;;;;;;5.10;4.70;;;14.30;1.00;;;;;;5042866;28;20459;-84
2022/10/10 04:18:25;;;;;;;7.10;5.80;;;14.30;1.00;;;;;;5045119;28;20518;-82
2022/10/10 04:20:53;;;;;;;5.60;5.20;;;14.40;1.00;;;;;;5054904;28;20878;-82
2022/10/10 04:23:21;;;;;;;5.27;4.43;;;14.40;99.90;;;;;;5042861;28;20497;-83
2022/10/10 04:25:51;;;;;;;4.90;4.60;;;14.40;99.90;;;;;;5041958;28;20509;-83
2022/10/10 04:28:19;;;;;;;5.90;5.00;;;14.50;99.90;;;;;;5037504;28;20478;-83
2022/10/10 04:30:49;;;;;;;5.03;4.60;;;14.40;99.90;;;;;;5043168;28;20557;-83
2022/10/10 04:33:17;;;;;;;4.80;4.50;;;14.40;99.90;;;;;;5039197;28;20456;-84
2022/10/10 04:35:48;;;;;;;4.80;4.37;;;14.30;99.90;;;;;;5043503;28;20964;-88
2022/10/10 04:38:18;;;;;;;5.07;4.70;;;14.10;1.00;;;;;;5047573;28;20537;-88
2022/10/10 04:40:48;;;;;;;5.17;4.23;;;14.20;1.00;;;;;;5034547;28;20939;-86
2022/10/10 04:43:17;;;;;;;5.23;4.70;;;14.30;1.00;;;;;;5043413;28;20938;-86
2022/10/10 04:45:45;;;;;;;6.67;4.33;;;14.30;1.00;;;;;;5043131;28;20501;-86
2022/10/10 04:48:15;;;;;;;4.63;4.23;;;14.30;99.90;;;;;;5046378;28;20540;-86
2022/10/10 04:50:43;;;;;;;5.10;4.60;;;14.30;99.90;;;;;;5042745;28;20523;-86
2022/10/10 04:53:14;;;;;;;5.50;4.60;;;14.30;99.90;;;;;;5042986;28;22221;-86
2022/10/10 04:55:44;;;;;;;5.30;4.53;;;14.10;1.00;;;;;;5047354;28;20524;-86
2022/10/10 04:58:12;;;;;;;6.10;5.63;;;14.20;1.00;;;;;;5043950;28;20459;-86
2022/10/10 05:00:40;;;;;;;5.60;5.20;;;14.30;1.00;;;;;;5046160;28;20585;-87
2022/10/10 05:03:12;;;;;;;7.80;5.73;;;14.30;1.00;;;;;;5050076;28;20458;-86
2022/10/10 05:05:43;;;;;;;4.60;4.30;;;14.30;1.00;;;;;;5044438;28;20450;-84
2022/10/10 05:08:11;;;;;;;4.57;4.30;;;14.20;1.00;;;;;;5055021;28;20930;-88
2022/10/10 05:10:39;;;;;;;5.90;5.40;;;14.20;1.00;;;;;;5049026;28;20460;-86
2022/10/10 05:13:10;;;;;;;9.40;5.70;;;14.30;1.00;;;;;;5047964;28;20502;-87
2022/10/10 05:15:38;;;;;;;6.80;5.00;;;14.40;1.00;;;;;;5041042;28;20490;-87
2022/10/10 05:18:07;;;;;;;5.60;5.20;;;14.30;1.00;;;;;;5045702;28;20533;-86
2022/10/10 05:20:36;;;;;;;5.60;5.20;;;14.30;1.00;;;;;;5044783;28;20447;-84
2022/10/10 05:23:05;;;;;;;5.43;4.93;;;14.40;1.00;;;;;;5045294;28;20464;-86
2022/10/10 05:25:33;;;;;;;5.43;4.90;;;14.40;1.00;;;;;;5045424;28;20473;-86
2022/10/10 05:28:01;;;;;;;5.13;4.47;;;14.20;1.00;;;;;;5048110;28;20536;-84
2022/10/10 05:30:29;;;;;;;5.73;5.23;;;14.30;94.50;;;;;;5051591;28;21260;-86
2022/10/10 05:32:58;;;;;;;5.60;5.20;;;14.30;99.90;;;;;;5054637;28;20464;-85
2022/10/10 05:35:26;;;;;;;4.67;4.37;;;14.30;1.00;;;;;;5048552;28;20459;-85
2022/10/10 05:37:54;;;;;;;5.77;5.27;;;14.50;1.00;;;;;;5042879;28;20479;-84
2022/10/10 05:40:24;;;;;;;5.20;4.80;;;14.50;1.00;;;;;;5050492;28;20505;-86
2022/10/10 05:42:52;;;;;;;6.53;5.33;;;14.60;1.00;;;;;;5046621;28;20458;-85
2022/10/10 05:45:20;;;;;;;5.57;5.00;;;14.60;1.00;;;;;;5043947;28;20561;-86
2022/10/10 05:47:48;;;;;;;5.73;5.00;;;14.60;1.00;;;;;;5043705;28;20487;-85
2022/10/10 05:50:29;;;;;;;6.37;5.40;;;14.50;1.00;;;;;;5052811;28;20505;-85
2022/10/10 05:52:57;;;;;;;6.70;6.10;;;14.50;99.90;;;;;;5049363;28;20499;-86
2022/10/10 05:55:27;;;;;;;6.03;5.40;;;14.50;99.90;;;;;;5048051;28;20474;-85
2022/10/10 05:57:55;;;;;;;5.63;5.30;;;14.40;1.00;;;;;;5050225;28;20525;-83
2022/10/10 06:00:24;;;;;;;7.70;7.10;;;14.40;1.00;;;;;;5049857;28;20559;-85
2022/10/10 06:02:52;;;;;;;8.60;7.70;;;14.30;1.00;;;;;;5045892;28;20487;-84
2022/10/10 06:05:21;;;;;;;7.93;7.20;;;14.30;1.00;;;;;;5049353;28;21014;-84
2022/10/10 06:07:49;;;;;;;6.83;6.33;;;14.30;1.00;;;;;;5042127;28;20486;-84
2022/10/10 06:10:39;;;;;;;7.57;6.70;;;14.40;1.00;;;;;;5044978;28;20457;-84
2022/10/10 06:13:07;;;;;;;6.70;6.03;;;14.40;1.00;;;;;;5046748;28;21219;-85
2022/10/10 06:15:35;;;;;;;6.00;5.10;;;14.50;99.90;;;;;;5050823;28;20536;-84
2022/10/10 06:18:04;;;;;;;5.90;5.40;;;14.50;99.90;;;;;;5052070;28;20447;-84
2022/10/10 06:20:34;;;;;;;7.67;5.23;;;14.60;1.00;;;;;;5047242;28;20517;-85
2022/10/10 06:23:03;;;;;;;4.70;4.33;;;14.50;1.00;;;;;;5040329;28;20870;-85
2022/10/10 06:25:34;;;;;;;6.60;6.07;;;14.60;99.90;;;;;;5044951;28;20452;-85
2022/10/10 06:28:09;;;;;;;6.13;5.53;;;14.60;1.00;;;;;;5045514;28;20532;-85
2022/10/10 06:30:40;;;;;;;5.90;5.50;;;14.60;99.90;;;;;;5047086;28;20461;-84
2022/10/10 06:33:08;;;;;;;6.00;5.43;;;14.60;99.90;;;;;;5048754;28;20517;-85
2022/10/10 06:35:40;;;;;;;9.20;5.77;;;14.70;1.00;;;;;;5048354;28;20483;-85
2022/10/10 06:38:08;;;;;;;11.40;8.17;;;14.70;1.00;;;;;;5041883;28;20984;-84
2022/10/10 06:40:36;;;;;;;10.70;6.83;;;14.80;1.00;;;;;;5045999;28;20461;-84
2022/10/10 06:43:07;;;;;;;10.53;7.67;;;14.70;99.90;;;;;;5054899;28;20448;-85
2022/10/10 06:45:37;;;;;;;8.63;7.70;;;14.70;1.00;;;;;;5046810;28;20468;-84
2022/10/10 06:48:06;;;;;;;7.70;7.10;;;14.80;1.00;;;;;;5040359;28;20839;-84
2022/10/10 06:50:34;;;;;;;7.87;6.80;;;14.80;99.90;;;;;;5049340;28;20548;-84
2022/10/10 06:53:04;;;;;;;6.93;6.30;;;14.90;78.80;;;;;;5045041;28;20455;-84
2022/10/10 06:55:33;;;;;;;6.63;6.07;;;14.90;1.00;;;;;;5041115;28;20807;-84
2022/10/10 06:58:01;;;;;;;8.13;7.17;;;14.90;1.00;;;;;;5035491;28;20439;-84
2022/10/10 07:00:29;;;;;;;7.23;6.37;;;15.00;1.00;;;;;;5034470;28;20456;-85
2022/10/10 07:02:59;;;;;;;6.63;6.03;;;15.10;99.90;;;;;;5046543;28;20458;-84
2022/10/10 07:05:27;;;;;;;7.00;6.40;;;15.20;99.90;;;;;;5047167;28;20463;-84
2022/10/10 07:07:55;;;;;;;9.53;6.70;;;15.20;99.90;;;;;;5047482;28;20474;-85
2022/10/10 07:10:23;;;;;;;6.60;6.00;;;15.40;1.00;;;;;;5044771;28;20494;-86
2022/10/10 07:12:52;;;;;;;10.40;6.80;;;15.40;1.00;;;;;;5043621;28;20459;-86
2022/10/10 07:15:21;;;;;;;7.00;6.30;;;15.20;99.90;;;;;;5044855;28;20462;-86
2022/10/10 07:17:56;;;;;;;6.20;5.70;;;15.30;1.00;;;;;;5041790;28;20462;-86
2022/10/10 07:20:26;;;;;;;7.23;6.57;;;15.20;87.40;;;;;;5044490;28;21177;-85
2022/10/10 07:22:54;;;;;;;6.40;5.90;;;15.30;28.10;;;;;;5046548;28;21083;-86
2022/10/10 07:25:23;;;;;;;5.83;5.40;;;15.40;1.00;;;;;;5047422;28;20962;-85
2022/10/10 07:27:51;;;;;;;6.63;6.07;;;15.40;1.00;;;;;;5047306;28;20461;-85
2022/10/10 07:30:19;;;;;;;6.23;5.83;;;15.40;1.00;;;;;;5046257;28;20480;-86
2022/10/10 07:32:47;;;;;;;6.73;6.27;;;15.60;1.00;;;;;;5049225;28;20457;-85
2022/10/10 07:35:16;;;;;;;8.67;6.33;;;15.50;1.00;;;;;;5044158;28;20507;-86
2022/10/10 07:37:46;;;;;;;6.30;5.80;;;15.60;1.00;;;;;;5045469;28;20488;-86
2022/10/10 07:40:15;;;;;;;6.37;5.87;;;15.50;1.00;;;;;;5050924;28;20474;-86
2022/10/10 07:42:43;;;;;;;5.50;5.10;;;15.50;1.00;;;;;;5041050;28;20974;-85
2022/10/10 07:45:11;;;;;;;8.73;5.90;;;15.60;1.00;;;;;;5054465;28;20483;-86
2022/10/10 07:47:40;;;;;;;6.37;5.93;;;15.70;1.00;;;;;;5047877;28;20474;-85
2022/10/10 07:50:10;;;;;;;6.30;5.67;;;15.70;1.00;;;;;;5039690;28;20510;-87
2022/10/10 07:52:39;;;;;;;6.40;5.90;;;15.80;1.00;;;;;;5052917;28;20836;-86
2022/10/10 07:55:09;;;;;;;6.77;6.20;;;15.80;1.00;;;;;;5050339;28;20520;-86
2022/10/10 07:57:38;;;;;;;5.87;5.30;;;15.80;1.00;;;;;;5050697;28;20947;-85
2022/10/10 08:00:08;;;;;;;7.10;6.50;;;15.90;1.00;;;;;;5035321;28;20516;-86
2022/10/10 08:02:36;;;;;;;5.70;5.27;;;15.90;1.00;;;;;;5053459;28;21128;-85
2022/10/10 08:05:05;;;;;;;6.43;5.93;;;16.00;1.00;;;;;;5048034;28;20542;-86
2022/10/10 08:07:34;;;;;;;6.13;5.73;;;16.00;1.00;;;;;;5046580;28;20955;-86
2022/10/10 08:10:03;;;;;;;5.93;5.50;;;16.10;1.00;;;;;;5052160;28;20850;-85
2022/10/10 08:12:33;;;;;;;6.47;5.87;;;16.00;1.00;;;;;;5047251;28;20459;-84
2022/10/10 08:15:01;;;;;;;5.73;5.40;;;16.00;1.00;;;;;;5038308;28;20454;-87
2022/10/10 08:17:29;;;;;;;5.57;5.27;;;16.00;1.00;;;;;;5041780;28;20935;-85
2022/10/10 08:19:58;;;;;;;5.60;5.20;;;16.10;1.00;;;;;;5047717;28;20992;-86
2022/10/10 08:22:26;;;;;;;5.70;5.20;;;16.10;1.00;;;;;;5042375;28;21241;-85
2022/10/10 08:24:54;;;;;;;5.30;4.93;;;16.20;1.00;;;;;;5042002;28;20993;-86
2022/10/10 08:27:22;;;;;;;5.77;5.33;;;16.20;1.00;;;;;;5045564;28;20459;-86
2022/10/10 08:29:51;;;;;;;5.03;4.73;;;16.30;1.00;;;;;;5046498;28;20608;-86
2022/10/10 08:32:21;;;;;;;5.67;5.27;;;16.40;1.00;;;;;;5057167;28;21235;-87
2022/10/10 08:34:50;;;;;;;4.90;4.70;;;16.40;99.90;;;;;;5048074;28;20470;-86
2022/10/10 08:37:21;;;;;;;5.77;5.27;;;16.50;99.90;;;;;;5048798;28;20509;-86
2022/10/10 08:39:56;;;;;;;5.33;5.13;;;16.50;99.90;;;;;;5052506;28;20462;-87
2022/10/10 08:42:32;;;;;;;6.00;5.67;;;16.70;99.90;;;;;;5051540;28;20850;-86
2022/10/10 08:45:04;;;;;;;6.00;5.60;;;16.80;99.90;;;;;;5054933;28;20457;-85
2022/10/10 08:47:38;;;;;;;6.57;6.07;;;16.80;99.90;;;;;;5043762;28;20524;-84
2022/10/10 08:50:15;;;;;;;5.90;5.47;;;16.80;99.90;;;;;;5043163;28;20474;-84
2022/10/10 08:52:48;;;;;;;7.30;5.93;;;17.00;99.90;;;;;;5053852;28;20950;-85
2022/10/10 08:55:21;;;;;;;6.90;6.40;;;17.10;99.90;;;;;;5053219;28;21001;-86
2022/10/10 08:57:54;;;;;;;6.80;6.20;;;17.30;99.90;;;;;;5045247;28;20451;-85
2022/10/10 09:00:28;;;;;;;6.13;5.63;;;17.40;99.90;;;;;;5048867;28;20564;-85
2022/10/10 09:02:57;;;;;;;5.80;5.30;;;17.30;99.90;;;;;;5058880;28;21071;-85
2022/10/10 09:05:42;;;;;;;5.60;5.20;;;17.20;99.90;;;;;;5042690;28;20455;-86
2022/10/10 09:08:33;;;;;;;6.00;5.43;;;17.20;99.90;;;;;;5052405;28;20499;-85
2022/10/10 09:11:15;;;;;;;5.97;5.57;;;17.20;99.90;;;;;;5052802;28;20459;-85
2022/10/10 09:13:50;;;;;;;5.77;5.27;;;17.30;99.90;;;;;;5041992;28;20451;-84
2022/10/10 09:16:34;;;;;;;5.70;5.20;;;17.40;99.90;;;;;;5049577;28;20459;-84
2022/10/10 09:19:14;;;;;;;5.50;5.20;;;17.30;99.90;;;;;;5049364;28;20451;-85
2022/10/10 09:21:45;;;;;;;5.67;5.47;;;17.60;99.90;;;;;;5046490;28;20463;-85
2022/10/10 09:24:20;;;;;;;6.77;6.33;;;17.80;99.90;;;;;;5053466;28;20462;-85
2022/10/10 09:26:52;;;;;;;6.90;6.40;;;18.10;35.80;;;;;;5046937;28;20455;-85
2022/10/10 09:29:30;;;;;;;6.33;6.03;;;20.80;1.00;;;;;;5046552;28;20590;-86
2022/10/10 09:32:09;;;;;;;7.73;6.37;;;20.20;99.90;;;;;;5043578;28;20579;-84
2022/10/10 09:34:41;;;;;;;6.20;5.90;;;19.80;99.90;;;;;;5054049;28;20501;-85
2022/10/10 09:37:15;;;;;;;6.43;5.70;;;19.50;1.00;;;;;;5048966;28;20471;-86
2022/10/10 09:40:01;;;;;;;5.90;5.67;;;19.20;1.00;;;;;;5048506;28;20459;-87
2022/10/10 09:42:34;;;;;;;6.23;5.70;;;20.00;1.00;;;;;;5042196;28;20456;-86
2022/10/10 09:45:04;;;;;;;5.23;4.93;;;20.20;99.90;;;;;;5056790;28;20509;-85
2022/10/10 09:47:33;;;;;;;5.53;5.23;;;19.90;99.90;;;;;;5047959;28;20447;-84
2022/10/10 09:50:03;;;;;;;6.10;5.80;;;19.60;99.90;;;;;;5051655;28;20471;-84
2022/10/10 09:52:37;;;;;;;5.27;4.97;;;19.30;1.00;;;;;;5032462;28;20774;-84
2022/10/10 09:55:18;;;;;;;6.23;5.73;;;19.10;1.00;;;;;;5046922;28;20450;-86
2022/10/10 09:57:47;;;;;;;6.70;6.20;;;19.00;1.00;;;;;;5041551;28;20511;-85
2022/10/10 10:00:28;;;;;;;5.90;5.60;;;18.90;1.00;;;;;;5043583;28;20540;-85
2022/10/10 10:03:10;;;;;;;5.20;4.80;;;18.90;1.00;;;;;;5046961;28;20950;-84
2022/10/10 10:05:40;;;;;;;5.80;5.40;;;19.00;1.00;;;;;;5037405;28;20471;-85
2022/10/10 10:08:20;;;;;;;5.30;4.87;;;18.80;1.00;;;;;;5044671;28;20542;-84
2022/10/10 10:10:48;;;;;;;5.10;4.90;;;18.70;1.00;;;;;;5053165;28;20524;-86
2022/10/10 10:13:23;;;;;;;5.63;5.13;;;18.70;1.00;;;;;;5047391;28;20491;-86
2022/10/10 10:15:58;;;;;;;5.60;5.10;;;18.60;1.00;;;;;;5043113;28;21253;-85
2022/10/10 10:18:29;;;;;;;5.27;4.83;;;18.70;1.00;;;;;;5050298;28;20467;-86
2022/10/10 10:21:16;;;;;;;4.70;4.40;;;18.80;1.00;;;;;;5049539;28;20466;-86
2022/10/10 10:23:50;;;;;;;5.27;4.83;;;18.70;1.00;;;;;;5042383;28;20455;-85
2022/10/10 10:26:24;;;;;;;5.83;5.43;;;18.80;1.00;;;;;;5041837;28;20950;-88
2022/10/10 10:28:53;;;;;;;4.80;4.50;;;18.90;1.00;;;;;;5049824;28;20466;-86
2022/10/10 10:31:53;;;;;;;4.40;4.10;;;18.90;1.00;;;;;;5063939;28;20464;-85
2022/10/10 10:34:50;;;;;;;4.93;4.63;;;18.90;1.00;;;;;;5047305;28;20534;-86
2022/10/10 10:37:22;;;;;;;5.00;4.60;;;19.00;1.00;;;;;;5042362;28;21271;-86
2022/10/10 10:40:09;;;;;;;5.17;4.73;;;19.10;1.00;;;;;;5045840;28;20511;-86
2022/10/10 10:42:54;;;;;;;4.73;4.40;;;19.10;1.00;;;;;;5053971;28;20550;-84
2022/10/10 10:45:32;;;;;;;5.23;4.93;;;19.10;1.00;;;;;;5050497;28;20900;-86
2022/10/10 10:48:08;;;;;;;6.67;6.37;;;19.80;1.00;;;;;;5052346;28;20483;-85
2022/10/10 10:50:47;;;;;;;5.03;4.67;;;24.90;99.90;;;;;;5053237;28;20521;-86
2022/10/10 10:53:22;;;;;;;5.20;4.90;;;29.20;99.90;;;;;;5050130;28;20512;-86
2022/10/10 10:55:58;;;;;;;3.37;3.07;;;31.40;99.90;;;;;;5047838;28;20862;-86
2022/10/10 10:58:54;;;;;;;3.83;3.23;;;33.70;99.90;;;;;;5051623;28;20532;-87
2022/10/10 11:01:46;;;;;;;5.33;3.50;;;34.20;99.90;;;;;;5047874;28;20547;-86
2022/10/10 11:04:55;;;;;;;2.43;2.23;;;32.10;99.90;;;;;;5046863;28;20913;-85
2022/10/10 11:07:52;;;;;;;3.07;2.70;;;30.40;99.90;;;;;;5050655;28;20448;-85
2022/10/10 11:10:29;;;;;;;4.83;2.77;;;28.00;99.90;;;;;;5044803;28;20464;-84
2022/10/10 11:13:06;;;;;;;3.65;3.05;;;26.60;99.90;;;;;;5041054;28;20459;-84
2022/10/10 11:15:39;;;;;;;4.40;3.13;;;25.70;99.90;;;;;;5049071;28;20807;-84
2022/10/10 11:18:32;;;;;;;6.13;3.17;;;24.50;99.90;;;;;;5044605;28;20486;-86
2022/10/10 11:21:05;;;;;;;5.17;2.90;;;24.00;99.90;;;;;;5050792;28;22237;-83
2022/10/10 11:23:40;;;;;;;6.07;3.50;;;23.00;99.90;;;;;;5060466;28;20483;-83
2022/10/10 11:26:16;;;;;;;7.00;2.97;;;22.80;99.90;;;;;;5048340;28;20479;-83
2022/10/10 11:28:50;;;;;;;7.53;3.30;;;22.50;99.90;;;;;;5050582;28;20496;-84
2022/10/10 11:31:22;;;;;;;3.60;3.20;;;22.50;99.90;;;;;;5048683;28;20464;-83
2022/10/10 11:33:54;;;;;;;9.30;3.00;;;22.60;99.90;;;;;;5050636;28;21241;-84
2022/10/10 11:36:27;;;;;;;5.17;3.27;;;22.60;99.90;;;;;;5049662;28;20802;-84
2022/10/10 11:39:02;;;;;;;2.90;2.50;;;22.60;99.90;;;;;;5049661;28;20833;-84
2022/10/10 11:41:35;;;;;;;4.53;2.87;;;22.80;99.90;;;;;;5054668;28;20478;-83
2022/10/10 11:44:10;;;;;;;5.37;3.13;;;22.70;99.90;;;;;;5055128;28;20459;-84
2022/10/10 11:46:45;;;;;;;4.80;2.97;;;22.50;99.90;;;;;;5047448;28;20509;-85
2022/10/10 11:49:19;;;;;;;5.20;3.30;;;22.30;99.90;;;;;;5049338;28;20582;-86
2022/10/10 11:52:10;;;;;;;4.67;3.33;;;22.30;99.90;;;;;;5047927;28;20569;-85
2022/10/10 11:55:05;;;;;;;4.20;3.20;;;22.40;99.90;;;;;;5048442;28;20478;-83
2022/10/10 11:57:39;;;;;;;7.20;2.53;;;22.70;99.90;;;;;;5052396;28;20822;-85
2022/10/10 12:00:13;;;;;;;4.40;2.70;;;22.70;99.90;;;;;;5049497;28;20483;-84
2022/10/10 12:02:43;;;;;;;5.97;2.80;;;22.70;99.90;;;;;;5051401;28;20501;-84
2022/10/10 12:05:21;;;;;;;4.10;2.80;;;22.50;99.90;;;;;;5053079;28;20470;-85
2022/10/10 12:08:02;;;;;;;5.20;3.57;;;22.50;99.90;;;;;;5051647;28;20470;-85
2022/10/10 12:10:37;;;;;;;5.10;2.67;;;22.60;99.90;;;;;;5048073;28;20478;-86
2022/10/10 12:13:20;;;;;;;11.67;2.83;;;22.60;99.90;;;;;;5042743;28;20462;-85
2022/10/10 12:15:51;;;;;;;6.53;3.07;;;22.80;99.90;;;;;;5047272;28;20474;-85
2022/10/10 12:18:28;;;;;;;11.77;3.20;;;22.90;99.90;;;;;;5041606;28;20484;-85
2022/10/10 12:21:06;;;;;;;6.73;2.97;;;23.00;99.90;;;;;;5049215;28;20478;-84
2022/10/10 12:23:34;;;;;;;5.10;2.87;;;23.00;99.90;;;;;;5053899;28;20546;-86
2022/10/10 12:26:04;;;;;;;3.10;2.00;;;23.10;99.90;;;;;;5053058;28;20856;-86
2022/10/10 12:28:37;;;;;;;9.60;2.90;;;22.80;99.90;;;;;;5052447;28;20491;-85
2022/10/10 12:31:27;;;;;;;10.87;2.80;;;22.90;99.90;;;;;;5037779;28;20483;-85
2022/10/10 12:34:05;;;;;;;2.73;2.47;;;23.10;99.90;;;;;;5052674;28;20498;-86
2022/10/10 12:37:11;;;;;;;6.03;3.50;;;22.90;99.90;;;;;;5039291;28;20447;-86
2022/10/10 12:40:02;;;;;;;3.77;2.80;;;22.90;99.90;;;;;;5043669;28;20479;-86
2022/10/10 12:42:34;;;;;;;4.57;3.00;;;23.00;99.90;;;;;;5045332;28;20435;-86
2022/10/10 12:45:02;;;;;;;6.60;2.63;;;23.30;99.90;;;;;;5052006;28;20458;-85
2022/10/10 12:47:41;;;;;;;10.60;3.13;;;23.00;99.90;;;;;;5052064;28;20443;-86
2022/10/10 12:50:33;;;;;;;4.40;2.80;;;22.70;99.90;;;;;;5038911;28;20455;-85
2022/10/10 12:53:04;;;;;;;5.70;3.03;;;22.80;99.90;;;;;;5048815;28;20482;-86
2022/10/10 12:55:41;;;;;;;12.43;3.20;;;23.00;99.90;;;;;;5039329;28;20797;-86
2022/10/10 12:58:19;;;;;;;5.10;2.60;;;23.00;99.90;;;;;;5049899;28;20475;-86
2022/10/10 13:00:56;;;;;;;6.30;2.70;;;23.10;99.90;;;;;;5051465;28;20615;-86
2022/10/10 13:03:31;;;;;;;6.00;2.87;;;23.00;99.90;;;;;;5051716;28;20915;-86
2022/10/10 13:06:04;;;;;;;6.40;2.40;;;23.00;99.90;;;;;;5051876;28;20466;-85
2022/10/10 13:08:36;;;;;;;5.30;2.10;;;23.10;99.90;;;;;;5042098;28;20475;-86
2022/10/10 13:11:08;;;;;;;10.90;3.23;;;23.10;99.90;;;;;;5043767;28;20478;-85
2022/10/10 13:13:38;;;;;;;6.77;2.73;;;23.20;99.90;;;;;;5052134;28;20494;-85
2022/10/10 13:16:09;;;;;;;7.43;2.60;;;23.10;99.90;;;;;;5054908;28;20451;-86
2022/10/10 13:18:39;;;;;;;13.37;3.27;;;22.90;99.90;;;;;;5052467;28;20475;-86